PQC weather

Phu Quoc International Airport
Phu Quoc Island, Kien Giang Province, Vietnam

Public forecast

Using degrees Celsius for public forecast. Weather courtesy of forecast.io.

Current aviation weather report (METAR) for Phu Quoc International Airport

Retrieved 2019/10/20 15:30 UTC (4 minutes ago):

VVPQ 201530Z VRB02KT 9000 SCT015 FEW017CB 27/25 Q1011 TEMPO TL1550 4000 SHRA CB/SE

Aviation forecast (TAF) for Phu Quoc International Airport

Retrieved 2019/10/20 12:00 UTC (4 hours ago):

TAF VVPQ 201100Z 2012/2112 05008KT 9999 FEW017 TEMPO 2021/2102 5000 SHRA SCT015 FEW017CB